createdAt,value
2023-05-23T00:00:59.256Z,72.91
2023-05-23T00:02:02.595Z,72.81
2023-05-23T00:03:06.544Z,72.80
2023-05-23T00:04:11.238Z,73.00
2023-05-23T00:05:15.996Z,72.35
2023-05-23T00:06:22.190Z,73.50
2023-05-23T00:07:26.805Z,72.69
2023-05-23T00:08:30.072Z,73.36
2023-05-23T00:09:33.418Z,72.79
2023-05-23T00:10:36.909Z,73.26
2023-05-23T00:11:40.028Z,73.20
2023-05-23T00:12:43.148Z,72.17
2023-05-23T00:13:47.149Z,72.11
2023-05-23T00:14:51.354Z,72.12
2023-05-23T00:15:55.102Z,73.37
2023-05-23T00:16:58.885Z,73.34
2023-05-23T00:18:02.192Z,72.45
2023-05-23T00:19:05.968Z,72.27
2023-05-23T00:20:11.879Z,73.38
2023-05-23T00:21:15.444Z,73.22
2023-05-23T00:22:18.845Z,73.82
2023-05-23T00:23:22.999Z,73.92
2023-05-23T00:24:26.461Z,73.62
2023-05-23T00:25:34.814Z,73.67
2023-05-23T00:26:38.322Z,73.37
2023-05-23T00:27:41.270Z,73.25
2023-05-23T00:28:44.751Z,73.17
2023-05-23T00:29:47.871Z,72.96
2023-05-23T00:30:51.252Z,73.30
2023-05-23T00:31:54.638Z,74.33
2023-05-23T00:32:58.178Z,73.78
2023-05-23T00:34:01.761Z,74.98
2023-05-23T00:35:05.643Z,74.85
2023-05-23T00:36:09.329Z,74.31
2023-05-23T00:37:12.798Z,73.95
2023-05-23T00:38:16.489Z,73.54
2023-05-23T00:39:20.437Z,75.88
2023-05-23T00:40:24.317Z,75.16
2023-05-23T00:41:27.846Z,74.90
2023-05-23T00:42:33.504Z,74.23
2023-05-23T00:43:37.364Z,73.89
2023-05-23T00:44:40.910Z,73.70
2023-05-23T00:45:44.330Z,74.98
2023-05-23T00:46:49.715Z,73.65
2023-05-23T00:47:53.317Z,73.68
2023-05-23T00:48:56.631Z,73.72
2023-05-23T00:50:00.291Z,73.83
2023-05-23T00:51:04.295Z,75.20
2023-05-23T00:52:07.972Z,74.93
2023-05-23T00:53:11.469Z,73.66
2023-05-23T00:54:14.855Z,74.55
2023-05-23T00:55:18.514Z,74.53
2023-05-23T00:56:22.236Z,74.48
2023-05-23T00:57:25.586Z,74.46
2023-05-23T00:58:29.171Z,74.78
2023-05-23T00:59:32.358Z,75.32
2023-05-23T01:00:36.835Z,74.44
2023-05-23T01:01:41.195Z,74.45
2023-05-23T01:02:48.443Z,74.37
2023-05-23T01:03:51.742Z,75.02
2023-05-23T01:04:56.072Z,74.31
2023-05-23T01:05:59.506Z,73.92
2023-05-23T01:07:03.287Z,73.86
2023-05-23T01:08:07.605Z,74.29
2023-05-23T01:09:11.307Z,75.33
2023-05-23T01:10:15.264Z,74.33
2023-05-23T01:11:31.194Z,74.57
2023-05-23T01:12:34.207Z,75.30
2023-05-23T01:13:43.146Z,74.53
2023-05-23T01:14:50.269Z,74.49
2023-05-23T01:16:14.168Z,74.51
2023-05-23T01:17:29.618Z,75.44
2023-05-23T01:18:42.289Z,74.53
2023-05-23T01:20:01.736Z,75.82
2023-05-23T01:21:10.308Z,75.85
2023-05-23T01:22:22.397Z,75.99
2023-05-23T01:23:45.468Z,76.12
2023-05-23T01:24:55.727Z,75.98
2023-05-23T01:26:17.794Z,75.85
2023-05-23T01:27:42.825Z,76.22
2023-05-23T01:28:51.232Z,75.48
2023-05-23T01:29:57.350Z,75.00
2023-05-23T01:31:01.314Z,77.39
2023-05-23T01:32:05.176Z,75.99
2023-05-23T01:33:09.280Z,76.18
2023-05-23T01:34:14.206Z,76.00
2023-05-23T01:35:23.401Z,76.49
2023-05-23T01:36:26.349Z,76.85
2023-05-23T01:37:30.386Z,77.39
2023-05-23T01:38:34.120Z,76.97
2023-05-23T01:39:38.277Z,77.29
2023-05-23T01:40:41.743Z,77.38
2023-05-23T01:41:46.083Z,77.04
2023-05-23T01:42:49.216Z,77.20
2023-05-23T01:43:52.458Z,77.67
2023-05-23T01:44:59.917Z,77.47
2023-05-23T01:46:03.475Z,77.33
2023-05-23T01:47:08.244Z,77.43
2023-05-23T01:48:12.779Z,77.33
2023-05-23T01:49:16.589Z,77.29
2023-05-23T01:50:20.313Z,77.50
2023-05-23T01:51:24.315Z,77.05
2023-05-23T01:52:28.534Z,77.17
2023-05-23T01:53:32.492Z,77.32
2023-05-23T01:54:35.947Z,77.33
2023-05-23T01:55:40.283Z,76.92
2023-05-23T01:56:44.586Z,77.04
2023-05-23T01:57:52.193Z,77.26
2023-05-23T01:58:55.753Z,76.80
2023-05-23T01:59:59.233Z,77.74
2023-05-23T02:01:03.620Z,79.30
2023-05-23T02:02:07.485Z,79.62
2023-05-23T02:03:10.938Z,78.91
2023-05-23T02:04:14.995Z,79.64
2023-05-23T02:05:18.437Z,79.65
2023-05-23T02:06:21.938Z,80.09
2023-05-23T02:07:25.360Z,80.76
2023-05-23T02:08:28.731Z,80.75
2023-05-23T02:09:32.493Z,80.65
2023-05-23T02:10:35.602Z,80.40
2023-05-23T02:11:39.232Z,80.08
2023-05-23T02:12:42.511Z,80.03
2023-05-23T02:13:46.126Z,80.13
2023-05-23T02:14:53.142Z,80.00
2023-05-23T02:15:56.140Z,79.51
2023-05-23T02:17:00.960Z,79.58
2023-05-23T02:18:05.173Z,78.96
2023-05-23T02:19:08.908Z,78.66
2023-05-23T02:20:12.415Z,78.36
2023-05-23T02:21:15.973Z,78.39
2023-05-23T02:22:19.564Z,78.49
2023-05-23T02:23:24.045Z,78.45
2023-05-23T02:24:27.152Z,77.82
2023-05-23T02:25:30.401Z,77.83
2023-05-23T02:26:33.670Z,77.43
2023-05-23T02:27:37.002Z,77.33
2023-05-23T02:28:40.636Z,78.42
2023-05-23T02:29:44.645Z,77.97
2023-05-23T02:30:48.053Z,77.99
2023-05-23T02:31:51.676Z,77.75
2023-05-23T02:32:55.272Z,78.10
2023-05-23T02:33:59.172Z,77.61
2023-05-23T02:35:02.766Z,78.14
2023-05-23T02:36:06.434Z,77.83
2023-05-23T02:37:09.585Z,78.26
2023-05-23T02:38:14.917Z,77.70
2023-05-23T02:39:18.768Z,77.25
2023-05-23T02:40:23.073Z,76.64
2023-05-23T02:41:26.302Z,76.69
2023-05-23T02:42:29.649Z,77.63
2023-05-23T02:43:32.687Z,76.91
2023-05-23T02:44:36.109Z,76.51
2023-05-23T02:45:40.001Z,77.10
2023-05-23T02:46:43.622Z,77.35
2023-05-23T02:47:46.762Z,76.94
2023-05-23T02:48:50.060Z,76.75
2023-05-23T02:49:53.118Z,76.45
2023-05-23T02:50:56.553Z,76.77
2023-05-23T02:51:59.475Z,76.47
2023-05-23T02:53:02.616Z,76.66
2023-05-23T02:54:06.002Z,76.21
2023-05-23T02:55:12.936Z,77.54
2023-05-23T02:56:22.723Z,76.97
2023-05-23T02:57:26.167Z,77.43
2023-05-23T02:58:30.415Z,76.88
2023-05-23T02:59:34.538Z,76.66
2023-05-23T03:00:37.729Z,76.91
2023-05-23T03:01:41.527Z,76.97
2023-05-23T03:02:45.321Z,76.84
2023-05-23T03:06:23.769Z,76.76
2023-05-23T03:07:28.781Z,76.75
2023-05-23T03:08:32.736Z,76.06
2023-05-23T03:09:36.428Z,76.17
2023-05-23T03:10:39.451Z,77.08
2023-05-23T03:11:42.616Z,76.65
2023-05-23T03:12:45.972Z,77.38
2023-05-23T03:13:51.113Z,76.94
2023-05-23T03:14:54.553Z,77.22
2023-05-23T03:15:57.884Z,76.38
2023-05-23T03:17:01.213Z,76.64
2023-05-23T03:18:06.737Z,76.48
2023-05-23T03:19:10.063Z,76.38
2023-05-23T03:20:13.383Z,76.13
2023-05-23T03:21:16.394Z,76.76
2023-05-23T03:22:19.470Z,75.98
2023-05-23T03:23:22.729Z,76.11
2023-05-23T03:24:26.536Z,75.70
2023-05-23T03:25:29.579Z,75.94
2023-05-23T03:26:32.940Z,76.27
2023-05-23T03:27:36.058Z,76.08
2023-05-23T03:28:38.979Z,75.75
2023-05-23T03:29:42.288Z,75.45
2023-05-23T03:30:46.958Z,76.08
2023-05-23T03:31:50.195Z,76.10
2023-05-23T03:32:54.360Z,76.31
2023-05-23T03:33:57.606Z,76.98
2023-05-23T03:35:00.750Z,76.83
2023-05-23T03:36:04.007Z,77.42
2023-05-23T03:37:07.193Z,77.18
2023-05-23T03:38:10.145Z,76.65
2023-05-23T03:39:13.762Z,77.05
2023-05-23T03:40:16.965Z,76.34
2023-05-23T03:41:22.226Z,76.65
2023-05-23T03:42:25.966Z,77.27
2023-05-23T03:43:29.091Z,77.52
2023-05-23T03:44:32.654Z,76.38
2023-05-23T03:45:36.126Z,76.76
2023-05-23T03:46:43.945Z,76.21
2023-05-23T03:47:47.067Z,76.26
2023-05-23T03:48:50.482Z,76.32
2023-05-23T03:49:53.735Z,76.36
2023-05-23T03:50:57.016Z,76.19
2023-05-23T03:52:00.899Z,76.36
2023-05-23T03:53:05.411Z,76.82
2023-05-23T03:54:08.712Z,77.37
2023-05-23T03:55:12.146Z,77.36
2023-05-23T03:56:15.459Z,76.62
2023-05-23T03:57:18.799Z,76.43
2023-05-23T03:58:22.183Z,77.71
2023-05-23T03:59:28.575Z,77.14
2023-05-23T04:00:32.043Z,77.90
2023-05-23T04:01:37.076Z,78.44
2023-05-23T04:02:41.066Z,79.82
2023-05-23T04:03:44.681Z,78.28
2023-05-23T04:04:47.912Z,78.68
2023-05-23T04:05:51.614Z,79.04
2023-05-23T04:06:54.807Z,79.87
2023-05-23T04:08:02.002Z,80.25
2023-05-23T04:09:06.921Z,79.39
2023-05-23T04:10:14.643Z,79.17
2023-05-23T04:11:18.626Z,79.38
2023-05-23T04:12:22.633Z,79.41
2023-05-23T04:13:26.851Z,79.83
2023-05-23T04:14:30.206Z,79.07
2023-05-23T04:15:34.803Z,80.36
2023-05-23T04:16:45.295Z,79.82
2023-05-23T04:17:49.467Z,79.06
2023-05-23T04:18:52.757Z,78.79
2023-05-23T04:19:56.127Z,78.40
2023-05-23T04:20:59.591Z,78.24
2023-05-23T04:22:02.771Z,78.73
2023-05-23T04:23:06.076Z,78.62
2023-05-23T04:24:12.902Z,78.75
2023-05-23T04:25:19.276Z,78.28
2023-05-23T04:26:43.713Z,78.11
2023-05-23T04:27:47.923Z,78.64
2023-05-23T04:28:54.883Z,78.56
2023-05-23T04:29:59.183Z,78.46
2023-05-23T04:31:04.062Z,78.30
2023-05-23T04:32:11.918Z,78.20
2023-05-23T04:33:15.070Z,77.76
2023-05-23T04:34:18.785Z,77.37
2023-05-23T04:35:22.048Z,77.10
2023-05-23T04:36:26.249Z,77.50
2023-05-23T04:37:33.489Z,77.35
2023-05-23T04:38:38.989Z,77.80
2023-05-23T04:39:42.365Z,77.51
2023-05-23T04:41:00.519Z,77.95
2023-05-23T04:42:45.400Z,77.52
2023-05-23T04:44:06.809Z,77.46
2023-05-23T04:45:15.863Z,77.76
2023-05-23T04:46:32.945Z,77.26
2023-05-23T04:47:49.466Z,77.92
2023-05-23T04:49:09.900Z,77.84
2023-05-23T04:50:13.913Z,77.73
2023-05-23T04:51:17.603Z,77.54
2023-05-23T04:52:28.912Z,77.67
2023-05-23T04:53:32.390Z,77.65
2023-05-23T04:54:37.132Z,77.79
2023-05-23T04:55:42.670Z,78.61
2023-05-23T04:56:50.966Z,78.96
2023-05-23T04:57:57.315Z,81.32
2023-05-23T04:59:00.717Z,80.01
2023-05-23T05:00:10.926Z,81.28
2023-05-23T05:01:14.966Z,81.52
2023-05-23T05:02:18.438Z,83.26
2023-05-23T05:03:21.525Z,83.93
2023-05-23T05:04:25.015Z,83.80
2023-05-23T05:05:28.615Z,83.90
2023-05-23T05:06:32.162Z,84.50
2023-05-23T05:07:36.347Z,83.77
2023-05-23T05:08:44.346Z,83.20
2023-05-23T05:09:48.019Z,82.78
2023-05-23T05:10:51.735Z,83.16
2023-05-23T05:11:59.968Z,83.54
2023-05-23T05:13:03.812Z,82.95
2023-05-23T05:14:16.184Z,83.00
2023-05-23T05:15:20.759Z,82.73
2023-05-23T05:16:28.826Z,81.95
2023-05-23T05:17:37.389Z,81.73
2023-05-23T05:18:44.316Z,81.62
2023-05-23T05:19:47.395Z,81.67
2023-05-23T05:20:51.271Z,80.99
2023-05-23T05:21:54.771Z,81.41
2023-05-23T05:22:58.554Z,82.39
2023-05-23T05:24:02.629Z,83.30
2023-05-23T05:25:08.167Z,83.82
2023-05-23T05:26:11.271Z,83.75
2023-05-23T05:27:14.782Z,83.75
2023-05-23T05:28:18.334Z,84.42
2023-05-23T05:29:27.259Z,83.77
2023-05-23T05:30:31.181Z,83.49
2023-05-23T05:31:38.247Z,83.19
2023-05-23T05:32:43.125Z,83.76
2023-05-23T05:33:47.244Z,84.24
2023-05-23T05:34:52.132Z,84.87
2023-05-23T05:35:55.175Z,84.62
2023-05-23T05:36:58.611Z,85.02
2023-05-23T05:38:05.309Z,85.07
2023-05-23T05:39:08.204Z,85.52
2023-05-23T05:40:12.929Z,85.77
2023-05-23T05:41:18.863Z,85.57
2023-05-23T05:42:25.283Z,85.39
2023-05-23T05:43:29.800Z,84.91
2023-05-23T05:44:33.284Z,84.35
2023-05-23T05:45:36.749Z,83.70
2023-05-23T05:46:40.504Z,83.71
2023-05-23T05:47:44.569Z,83.61
2023-05-23T05:48:47.981Z,83.47
2023-05-23T05:49:53.518Z,83.38
2023-05-23T05:50:57.279Z,82.75
2023-05-23T05:52:01.095Z,82.98
2023-05-23T05:53:04.922Z,83.23
2023-05-23T05:54:08.627Z,83.50
2023-05-23T05:55:12.106Z,82.68
2023-05-23T05:56:19.731Z,82.27
2023-05-23T05:57:24.684Z,82.09
2023-05-23T05:58:27.972Z,81.96
2023-05-23T05:59:35.349Z,81.58
2023-05-23T06:00:43.418Z,81.30
2023-05-23T06:01:47.033Z,81.05
2023-05-23T06:02:58.396Z,81.34
2023-05-23T06:04:17.862Z,81.00
2023-05-23T06:05:21.348Z,80.61
2023-05-23T06:06:25.327Z,80.59
2023-05-23T06:07:29.720Z,80.19
2023-05-23T06:08:32.720Z,79.97
2023-05-23T06:09:36.656Z,80.22
2023-05-23T06:10:40.688Z,79.80
2023-05-23T06:11:44.658Z,79.36
2023-05-23T06:12:47.877Z,79.23
2023-05-23T06:13:51.105Z,79.09
2023-05-23T06:14:55.386Z,79.42
2023-05-23T06:15:59.337Z,79.54
2023-05-23T06:17:04.155Z,79.52
2023-05-23T06:18:08.015Z,79.36
2023-05-23T06:19:13.027Z,79.04
2023-05-23T06:20:17.082Z,79.17
2023-05-23T06:21:22.976Z,79.62
2023-05-23T06:22:27.907Z,79.25
2023-05-23T06:23:31.128Z,78.63
2023-05-23T06:24:35.072Z,78.42
2023-05-23T06:25:39.833Z,77.79
2023-05-23T06:26:43.077Z,77.52
2023-05-23T06:27:46.869Z,76.83
2023-05-23T06:28:50.421Z,76.46
2023-05-23T06:29:53.921Z,75.98
2023-05-23T06:30:58.622Z,75.50
2023-05-23T06:32:02.524Z,75.29
2023-05-23T06:33:06.560Z,74.93
2023-05-23T06:34:10.377Z,74.45
2023-05-23T06:35:13.977Z,74.48
2023-05-23T06:36:17.628Z,74.15
2023-05-23T06:37:21.019Z,74.33
2023-05-23T06:38:24.345Z,74.48
2023-05-23T06:39:27.930Z,74.44
2023-05-23T06:40:31.625Z,74.34
2023-05-23T06:41:35.081Z,74.20
2023-05-23T06:42:38.651Z,74.40
2023-05-23T06:44:04.748Z,74.53
2023-05-23T06:45:08.913Z,74.57
2023-05-23T06:46:13.119Z,74.45
2023-05-23T06:47:17.163Z,74.95
2023-05-23T06:48:20.301Z,76.07
2023-05-23T06:49:25.624Z,76.61
2023-05-23T06:50:29.197Z,76.64
2023-05-23T06:51:33.532Z,77.31
2023-05-23T06:52:37.289Z,77.58
2023-05-23T06:53:41.310Z,78.60
2023-05-23T06:54:44.689Z,79.58
2023-05-23T06:55:48.340Z,79.99
2023-05-23T06:56:54.865Z,79.59
2023-05-23T06:57:58.345Z,78.82
2023-05-23T06:59:01.649Z,78.65
2023-05-23T07:00:05.979Z,78.39
2023-05-23T07:01:18.224Z,78.40
2023-05-23T07:02:24.772Z,78.08
2023-05-23T07:03:28.525Z,78.16
2023-05-23T07:04:37.239Z,78.37
2023-05-23T07:05:46.480Z,77.45
2023-05-23T07:06:53.663Z,76.38
2023-05-23T07:07:57.590Z,75.25
2023-05-23T07:09:01.602Z,73.75
2023-05-23T07:10:07.590Z,72.13
2023-05-23T07:11:10.914Z,71.37
2023-05-23T07:12:17.289Z,71.32
2023-05-23T07:13:23.342Z,70.23
2023-05-23T07:14:27.206Z,69.37
2023-05-23T07:15:30.298Z,68.69
2023-05-23T07:16:45.881Z,68.12
2023-05-23T07:17:49.738Z,67.53
2023-05-23T07:18:53.427Z,67.58
2023-05-23T07:19:56.986Z,67.22
2023-05-23T07:21:00.833Z,68.06
2023-05-23T07:22:04.448Z,67.57
2023-05-23T07:23:09.142Z,67.14
2023-05-23T07:24:12.534Z,66.82
2023-05-23T07:25:16.127Z,66.90
2023-05-23T07:26:19.350Z,67.37
2023-05-23T07:27:30.643Z,68.61
2023-05-23T07:28:35.005Z,69.62
2023-05-23T07:29:38.227Z,69.66
2023-05-23T07:30:44.809Z,69.75
2023-05-23T07:31:48.251Z,69.46
2023-05-23T07:32:53.417Z,69.13
2023-05-23T07:33:57.324Z,69.09
2023-05-23T07:35:10.359Z,68.72
2023-05-23T07:36:13.738Z,68.75
2023-05-23T07:37:16.947Z,68.38
2023-05-23T07:38:22.092Z,68.40
2023-05-23T07:39:26.445Z,68.84
2023-05-23T07:40:30.123Z,68.68
2023-05-23T07:41:33.450Z,68.81
2023-05-23T07:42:37.359Z,68.71
2023-05-23T07:43:41.584Z,68.52
2023-05-23T07:44:45.380Z,68.73
2023-05-23T07:45:49.289Z,69.36
2023-05-23T07:46:53.209Z,69.18
2023-05-23T07:47:58.006Z,69.35
2023-05-23T07:49:01.870Z,69.56
2023-05-23T07:50:06.090Z,69.37
2023-05-23T07:51:09.528Z,69.25
2023-05-23T07:52:13.034Z,69.38
2023-05-23T07:53:17.327Z,69.15
2023-05-23T07:54:20.426Z,69.48
2023-05-23T07:55:26.328Z,69.46
2023-05-23T07:56:32.082Z,69.30
2023-05-23T07:57:35.229Z,69.25
2023-05-23T07:58:39.020Z,69.37
2023-05-23T07:59:43.080Z,69.25
2023-05-23T08:00:46.764Z,69.56
2023-05-23T08:02:10.187Z,69.60
2023-05-23T08:03:14.596Z,69.30
2023-05-23T08:04:30.182Z,69.76
2023-05-23T08:05:33.433Z,69.71
2023-05-23T08:06:36.892Z,70.00
2023-05-23T08:07:45.990Z,70.47
2023-05-23T08:08:50.688Z,70.51
2023-05-23T08:09:54.571Z,70.77
2023-05-23T08:10:59.040Z,71.36
2023-05-23T08:12:08.436Z,72.54
2023-05-23T08:13:12.072Z,73.40
2023-05-23T08:14:34.913Z,73.13
2023-05-23T08:15:56.697Z,72.36
2023-05-23T08:17:04.573Z,71.81
2023-05-23T08:18:08.003Z,71.17
2023-05-23T08:19:12.077Z,72.20
2023-05-23T08:20:16.097Z,72.23
2023-05-23T08:21:21.839Z,71.59
2023-05-23T08:22:25.646Z,72.08
2023-05-23T08:23:29.066Z,72.15
2023-05-23T08:24:35.047Z,71.31
2023-05-23T08:25:38.902Z,70.83
2023-05-23T08:26:42.916Z,70.33
2023-05-23T08:27:48.881Z,69.76
2023-05-23T08:29:21.460Z,68.76
2023-05-23T08:30:25.949Z,68.26
2023-05-23T08:31:31.094Z,67.74
2023-05-23T08:32:34.549Z,67.17
2023-05-23T08:33:38.087Z,66.58
2023-05-23T08:34:42.470Z,65.70
2023-05-23T08:35:46.236Z,65.22
2023-05-23T08:36:51.208Z,64.89
2023-05-23T08:37:59.100Z,64.83
2023-05-23T08:39:04.413Z,65.02
2023-05-23T08:40:20.793Z,64.67
2023-05-23T08:41:31.940Z,64.11
2023-05-23T08:42:40.301Z,63.35
2023-05-23T08:43:45.927Z,62.15
2023-05-23T08:44:54.701Z,61.16
2023-05-23T08:45:59.127Z,60.14
2023-05-23T08:47:05.939Z,59.58
2023-05-23T08:48:20.999Z,59.56
2023-05-23T08:49:27.060Z,59.26
2023-05-23T08:50:31.828Z,58.72
2023-05-23T08:51:35.205Z,58.41
2023-05-23T08:52:53.233Z,57.88
2023-05-23T08:53:56.931Z,57.69
2023-05-23T08:55:02.033Z,57.54
2023-05-23T08:56:07.089Z,56.62
2023-05-23T08:57:18.307Z,55.00
2023-05-23T08:58:30.350Z,54.38
2023-05-23T08:59:33.956Z,52.92
2023-05-23T09:00:37.150Z,52.31
2023-05-23T09:01:41.949Z,51.27
2023-05-23T09:02:47.865Z,50.59
2023-05-23T09:04:07.635Z,50.60
2023-05-23T09:05:23.457Z,50.39
2023-05-23T09:06:27.496Z,50.42
2023-05-23T09:07:31.538Z,49.67
2023-05-23T09:08:38.836Z,49.85
2023-05-23T09:09:42.408Z,49.55
2023-05-23T09:10:51.770Z,49.33
2023-05-23T09:11:57.000Z,48.65
2023-05-23T09:13:00.469Z,47.38
2023-05-23T09:14:06.143Z,46.55
2023-05-23T09:15:10.542Z,45.68
2023-05-23T09:16:14.431Z,45.30
2023-05-23T09:17:25.376Z,43.83
2023-05-23T09:18:39.299Z,43.04
2023-05-23T09:19:44.053Z,42.62
2023-05-23T09:20:58.083Z,42.46
2023-05-23T09:22:04.180Z,41.58
2023-05-23T09:23:14.793Z,39.71
2023-05-23T09:24:17.933Z,38.89
2023-05-23T09:25:21.981Z,38.27
2023-05-23T09:26:25.236Z,38.12
2023-05-23T09:27:28.408Z,38.12
2023-05-23T09:28:33.000Z,37.49
2023-05-23T09:29:42.073Z,36.82
2023-05-23T09:30:45.219Z,35.34
2023-05-23T09:31:49.591Z,34.56
2023-05-23T09:33:03.898Z,34.01
2023-05-23T09:34:11.492Z,33.33
2023-05-23T09:35:16.002Z,31.71
2023-05-23T09:36:22.039Z,31.27
2023-05-23T09:37:33.272Z,30.21
2023-05-23T09:38:43.243Z,29.87
2023-05-23T09:39:49.859Z,29.72
2023-05-23T09:40:56.936Z,28.17
2023-05-23T09:42:01.582Z,28.16
2023-05-23T09:43:05.839Z,30.06
2023-05-23T09:44:10.021Z,31.87
2023-05-23T09:45:14.056Z,33.14
2023-05-23T09:46:17.714Z,32.81
2023-05-23T09:47:21.297Z,30.99
2023-05-23T09:48:34.444Z,30.76
2023-05-23T09:49:41.567Z,30.10
2023-05-23T09:50:46.524Z,29.07
2023-05-23T09:51:59.556Z,28.85
2023-05-23T09:53:03.046Z,28.13
2023-05-23T09:54:06.857Z,28.96
2023-05-23T09:55:10.582Z,28.23
2023-05-23T09:56:14.111Z,28.71
2023-05-23T09:57:17.914Z,29.03
2023-05-23T09:58:22.137Z,28.66
2023-05-23T09:59:25.509Z,28.71
2023-05-23T10:00:29.769Z,29.21
2023-05-23T10:01:33.528Z,29.93
2023-05-23T10:02:57.824Z,30.63
2023-05-23T10:04:01.554Z,31.16
2023-05-23T10:05:05.717Z,32.33
2023-05-23T10:06:23.190Z,32.08
2023-05-23T10:07:26.804Z,32.52
2023-05-23T10:08:37.853Z,31.94
2023-05-23T10:09:42.596Z,32.54
2023-05-23T10:11:04.061Z,32.33
2023-05-23T10:12:32.141Z,32.32
2023-05-23T10:13:35.900Z,32.62
2023-05-23T10:14:41.342Z,32.77
2023-05-23T10:15:44.582Z,33.44
2023-05-23T10:17:02.619Z,33.72
2023-05-23T10:18:22.524Z,33.44
2023-05-23T10:19:29.958Z,32.46
2023-05-23T10:20:34.033Z,32.63
2023-05-23T10:21:43.128Z,32.41
2023-05-23T10:22:48.368Z,32.55
2023-05-23T10:23:51.743Z,32.27
2023-05-23T10:24:55.399Z,32.17
2023-05-23T10:25:58.526Z,32.49
2023-05-23T10:27:01.527Z,31.71
2023-05-23T10:28:04.722Z,31.73
2023-05-23T10:29:08.171Z,31.85
2023-05-23T10:30:11.856Z,32.21
2023-05-23T10:31:14.876Z,32.01
2023-05-23T10:32:18.553Z,32.62
2023-05-23T10:33:23.551Z,32.47
2023-05-23T10:34:29.598Z,31.81
2023-05-23T10:35:57.686Z,32.02
2023-05-23T10:37:07.543Z,31.60
2023-05-23T10:38:37.987Z,29.96
2023-05-23T10:39:53.077Z,29.93
2023-05-23T10:41:19.995Z,29.03
2023-05-23T10:42:29.953Z,28.18
2023-05-23T10:44:30.114Z,27.09
2023-05-23T10:45:34.194Z,26.94
2023-05-23T10:46:59.591Z,26.58
2023-05-23T10:48:03.197Z,25.53
2023-05-23T10:49:06.502Z,25.64
2023-05-23T10:50:14.895Z,25.31
2023-05-23T10:51:18.656Z,24.81
2023-05-23T10:52:23.408Z,25.36
2023-05-23T10:53:26.374Z,25.41
2023-05-23T10:54:35.208Z,25.02
2023-05-23T10:55:38.805Z,25.14
2023-05-23T10:56:42.641Z,24.05
2023-05-23T10:57:46.717Z,24.07
2023-05-23T10:58:54.532Z,23.31
2023-05-23T10:59:58.096Z,23.43
2023-05-23T11:01:11.326Z,22.44
2023-05-23T11:02:36.194Z,23.99
2023-05-23T11:03:49.872Z,24.12
2023-05-23T11:05:20.437Z,25.54
2023-05-23T11:06:46.523Z,25.16
2023-05-23T11:08:12.296Z,25.27
2023-05-23T11:09:19.862Z,24.40
2023-05-23T11:10:23.058Z,24.06
2023-05-23T11:11:26.346Z,24.04
2023-05-23T11:12:43.299Z,23.54
2023-05-23T11:13:55.912Z,24.05
2023-05-23T11:14:59.395Z,24.23
2023-05-23T11:16:03.203Z,24.52
2023-05-23T11:17:19.844Z,26.04
2023-05-23T11:18:25.109Z,26.51
2023-05-23T11:19:29.558Z,26.86
2023-05-23T11:20:33.507Z,27.01
2023-05-23T11:21:37.732Z,27.32
2023-05-23T11:22:42.910Z,27.94
2023-05-23T11:23:46.467Z,28.97
2023-05-23T11:24:53.583Z,29.16
2023-05-23T11:25:57.637Z,28.31
2023-05-23T11:27:01.687Z,28.84
2023-05-23T11:28:07.853Z,29.07
2023-05-23T11:29:11.045Z,28.70
2023-05-23T11:30:16.749Z,28.54
2023-05-23T11:31:20.602Z,28.68
2023-05-23T11:32:24.395Z,28.33
2023-05-23T11:33:27.729Z,28.16
2023-05-23T11:34:31.612Z,27.61
2023-05-23T11:35:36.020Z,26.84
2023-05-23T11:36:39.852Z,26.14
2023-05-23T11:37:43.053Z,25.34
2023-05-23T11:38:48.996Z,25.87
2023-05-23T11:39:52.313Z,25.44
2023-05-23T11:40:55.371Z,24.95
2023-05-23T11:42:04.289Z,25.66
2023-05-23T11:43:09.595Z,25.39
2023-05-23T11:44:14.195Z,26.39
2023-05-23T11:45:17.588Z,26.41
2023-05-23T11:46:20.755Z,26.12
2023-05-23T11:47:24.393Z,26.80
2023-05-23T11:48:27.978Z,26.67
2023-05-23T11:49:36.164Z,26.89
2023-05-23T11:50:50.308Z,27.04
2023-05-23T11:51:53.921Z,26.34
2023-05-23T11:52:57.486Z,26.74
2023-05-23T11:54:03.636Z,26.93
2023-05-23T11:55:09.446Z,26.63
2023-05-23T11:56:12.604Z,26.39
2023-05-23T11:57:15.847Z,26.93
2023-05-23T11:58:19.186Z,26.97
2023-05-23T11:59:23.553Z,27.01
2023-05-23T12:00:27.329Z,26.78
2023-05-23T12:01:34.385Z,27.28
2023-05-23T12:02:44.518Z,27.63
2023-05-23T12:03:49.625Z,27.70
2023-05-23T12:04:53.625Z,28.04
2023-05-23T12:05:57.589Z,28.70
2023-05-23T12:07:01.289Z,29.25
2023-05-23T12:08:04.899Z,29.75
2023-05-23T12:09:09.301Z,30.02
2023-05-23T12:10:13.035Z,29.86
2023-05-23T12:11:16.625Z,30.79
2023-05-23T12:12:21.121Z,30.67
2023-05-23T12:13:30.682Z,31.18
2023-05-23T12:14:34.132Z,31.39
2023-05-23T12:15:37.202Z,31.45
2023-05-23T12:16:41.031Z,32.12
2023-05-23T12:17:47.586Z,32.28
2023-05-23T12:18:51.279Z,32.29
2023-05-23T12:19:54.753Z,33.18
2023-05-23T12:21:02.385Z,33.46
2023-05-23T12:22:11.432Z,33.13
2023-05-23T12:23:23.969Z,33.79
2023-05-23T12:24:27.209Z,33.62
2023-05-23T12:25:30.717Z,33.95
2023-05-23T12:26:33.734Z,34.59
2023-05-23T12:27:37.687Z,34.85
2023-05-23T12:28:45.694Z,34.42
2023-05-23T12:29:55.624Z,35.09
2023-05-23T12:30:58.509Z,35.40
2023-05-23T12:32:02.809Z,35.08
2023-05-23T12:33:09.529Z,35.58
2023-05-23T12:34:14.166Z,35.93
2023-05-23T12:35:18.204Z,35.69
2023-05-23T12:36:27.422Z,35.49
2023-05-23T12:37:31.918Z,36.19
2023-05-23T12:38:38.538Z,36.22
2023-05-23T12:39:45.720Z,36.39
2023-05-23T12:40:48.717Z,36.31
2023-05-23T12:41:51.820Z,35.97
2023-05-23T12:42:58.255Z,36.45
2023-05-23T12:44:01.488Z,36.15
2023-05-23T12:45:05.390Z,36.42
2023-05-23T12:46:09.312Z,36.49
2023-05-23T12:47:12.804Z,36.85
2023-05-23T12:48:16.217Z,37.30
2023-05-23T12:49:19.513Z,37.07
2023-05-23T12:50:23.555Z,37.04
2023-05-23T12:51:27.181Z,36.97
2023-05-23T12:52:33.724Z,37.23
2023-05-23T12:53:37.159Z,37.21
2023-05-23T12:54:40.442Z,36.76
2023-05-23T12:55:43.855Z,37.21
2023-05-23T12:56:47.388Z,37.13
2023-05-23T12:57:50.691Z,37.08
2023-05-23T12:58:57.654Z,37.14
2023-05-23T13:00:01.206Z,37.20
2023-05-23T13:01:05.313Z,37.57
2023-05-23T13:02:08.797Z,37.22
2023-05-23T13:03:12.184Z,37.16
2023-05-23T13:04:15.952Z,37.19
2023-05-23T13:05:19.341Z,37.48
2023-05-23T13:06:22.877Z,37.84
2023-05-23T13:07:26.522Z,38.09
2023-05-23T13:08:30.525Z,37.99
2023-05-23T13:09:33.792Z,37.98
2023-05-23T13:10:36.569Z,38.22
2023-05-23T13:11:40.103Z,38.17
2023-05-23T13:12:44.192Z,37.83
2023-05-23T13:13:47.537Z,37.17
2023-05-23T13:14:51.054Z,37.25
2023-05-23T13:15:54.479Z,37.15
2023-05-23T13:16:58.079Z,37.35
2023-05-23T13:18:02.163Z,37.65
2023-05-23T13:19:05.539Z,37.38
2023-05-23T13:20:10.272Z,38.08
2023-05-23T13:21:13.549Z,37.76
2023-05-23T13:22:17.162Z,37.83
2023-05-23T13:23:20.248Z,37.62
2023-05-23T13:24:23.846Z,37.53
2023-05-23T13:25:27.715Z,37.09
2023-05-23T13:26:31.232Z,37.32
2023-05-23T13:27:34.811Z,37.08
2023-05-23T13:28:37.962Z,36.65
2023-05-23T13:29:41.723Z,36.92
2023-05-23T13:30:47.322Z,36.56
2023-05-23T13:31:51.318Z,36.38
2023-05-23T13:32:55.213Z,36.01
2023-05-23T13:33:59.076Z,36.13
2023-05-23T13:35:02.771Z,36.12
2023-05-23T13:36:06.583Z,35.99
2023-05-23T13:37:10.317Z,36.26
2023-05-23T13:38:14.132Z,35.69
2023-05-23T13:39:19.800Z,35.25
2023-05-23T13:40:23.888Z,35.72
2023-05-23T13:41:28.440Z,36.04
2023-05-23T13:42:32.253Z,36.20
2023-05-23T13:43:35.544Z,36.33
2023-05-23T13:44:39.279Z,36.80
2023-05-23T13:45:42.571Z,36.10
2023-05-23T13:46:46.120Z,35.81
2023-05-23T13:47:49.264Z,36.29
2023-05-23T13:48:52.506Z,36.29
2023-05-23T13:49:56.100Z,36.75
2023-05-23T13:50:59.750Z,36.60
2023-05-23T13:52:03.656Z,36.57
2023-05-23T13:53:15.646Z,37.00
2023-05-23T13:54:19.113Z,37.14
2023-05-23T13:55:23.105Z,37.11
2023-05-23T13:56:26.746Z,36.94
2023-05-23T13:57:29.788Z,36.20
2023-05-23T13:58:33.023Z,36.96
2023-05-23T13:59:36.994Z,35.91
2023-05-23T14:00:41.030Z,36.30
2023-05-23T14:01:44.443Z,36.10
2023-05-23T14:02:48.397Z,36.18
2023-05-23T14:03:51.865Z,36.21
2023-05-23T14:04:55.363Z,36.85
2023-05-23T14:05:58.203Z,37.43
2023-05-23T14:07:01.604Z,37.47
2023-05-23T14:08:04.985Z,37.65
2023-05-23T14:09:08.297Z,37.71